sensor_id;sensor_type;location;lat;lon;timestamp;P1;durP1;ratioP1;P2;durP2;ratioP2
80231;SDS011;70197;42.124;24.752;2023-08-08T00:00:37;1.70;;;1.42;;
80231;SDS011;70197;42.124;24.752;2023-08-08T00:03:03;2.15;;;1.30;;
80231;SDS011;70197;42.124;24.752;2023-08-08T00:05:29;1.70;;;1.52;;
80231;SDS011;70197;42.124;24.752;2023-08-08T00:07:55;1.20;;;1.10;;
80231;SDS011;70197;42.124;24.752;2023-08-08T00:10:20;1.52;;;1.42;;
80231;SDS011;70197;42.124;24.752;2023-08-08T00:12:46;1.52;;;1.35;;
80231;SDS011;70197;42.124;24.752;2023-08-08T00:15:12;1.60;;;1.38;;
80231;SDS011;70197;42.124;24.752;2023-08-08T00:17:37;1.60;;;1.50;;
80231;SDS011;70197;42.124;24.752;2023-08-08T00:20:03;1.50;;;1.40;;
80231;SDS011;70197;42.124;24.752;2023-08-08T00:22:29;4.20;;;1.73;;
80231;SDS011;70197;42.124;24.752;2023-08-08T00:24:55;2.45;;;1.50;;
80231;SDS011;70197;42.124;24.752;2023-08-08T00:27:21;1.50;;;1.40;;
80231;SDS011;70197;42.124;24.752;2023-08-08T00:29:46;1.50;;;1.40;;
80231;SDS011;70197;42.124;24.752;2023-08-08T00:32:12;3.95;;;1.50;;
80231;SDS011;70197;42.124;24.752;2023-08-08T00:34:38;1.70;;;1.60;;
80231;SDS011;70197;42.124;24.752;2023-08-08T00:37:03;3.50;;;1.50;;
80231;SDS011;70197;42.124;24.752;2023-08-08T00:39:29;3.92;;;1.90;;
80231;SDS011;70197;42.124;24.752;2023-08-08T00:41:55;2.35;;;1.40;;
80231;SDS011;70197;42.124;24.752;2023-08-08T00:44:20;1.90;;;1.60;;
80231;SDS011;70197;42.124;24.752;2023-08-08T00:46:46;1.77;;;1.67;;
80231;SDS011;70197;42.124;24.752;2023-08-08T00:49:12;2.30;;;1.55;;
80231;SDS011;70197;42.124;24.752;2023-08-08T00:51:37;1.70;;;1.60;;
80231;SDS011;70197;42.124;24.752;2023-08-08T00:54:03;2.83;;;1.67;;
80231;SDS011;70197;42.124;24.752;2023-08-08T00:56:29;1.73;;;1.60;;
80231;SDS011;70197;42.124;24.752;2023-08-08T00:58:55;2.67;;;1.55;;
80231;SDS011;70197;42.124;24.752;2023-08-08T01:01:21;1.90;;;1.80;;
80231;SDS011;70197;42.124;24.752;2023-08-08T01:03:47;2.45;;;1.70;;
80231;SDS011;70197;42.124;24.752;2023-08-08T01:06:19;2.63;;;1.80;;
80231;SDS011;70197;42.124;24.752;2023-08-08T01:08:55;1.70;;;1.60;;
80231;SDS011;70197;42.124;24.752;2023-08-08T01:11:25;1.75;;;1.65;;
80231;SDS011;70197;42.124;24.752;2023-08-08T01:13:54;1.88;;;1.60;;
80231;SDS011;70197;42.124;24.752;2023-08-08T01:16:21;4.80;;;1.80;;
80231;SDS011;70197;42.124;24.752;2023-08-08T01:18:48;5.13;;;1.70;;
80231;SDS011;70197;42.124;24.752;2023-08-08T01:21:15;8.00;;;1.92;;
80231;SDS011;70197;42.124;24.752;2023-08-08T01:23:46;4.97;;;1.88;;
80231;SDS011;70197;42.124;24.752;2023-08-08T01:26:22;1.80;;;1.70;;
80231;SDS011;70197;42.124;24.752;2023-08-08T01:28:51;2.40;;;1.63;;
80231;SDS011;70197;42.124;24.752;2023-08-08T01:31:19;5.82;;;1.80;;
80231;SDS011;70197;42.124;24.752;2023-08-08T01:33:45;3.28;;;1.48;;
80231;SDS011;70197;42.124;24.752;2023-08-08T01:36:13;4.43;;;1.60;;
80231;SDS011;70197;42.124;24.752;2023-08-08T01:38:44;10.10;;;1.88;;
80231;SDS011;70197;42.124;24.752;2023-08-08T01:41:13;2.40;;;1.50;;
80231;SDS011;70197;42.124;24.752;2023-08-08T01:43:40;2.20;;;2.00;;
80231;SDS011;70197;42.124;24.752;2023-08-08T01:46:07;2.88;;;1.70;;
80231;SDS011;70197;42.124;24.752;2023-08-08T01:48:33;6.80;;;2.25;;
80231;SDS011;70197;42.124;24.752;2023-08-08T01:50:59;20.42;;;2.30;;
80231;SDS011;70197;42.124;24.752;2023-08-08T01:53:25;6.30;;;1.67;;
80231;SDS011;70197;42.124;24.752;2023-08-08T01:55:51;1.80;;;1.70;;
80231;SDS011;70197;42.124;24.752;2023-08-08T01:58:17;3.33;;;1.70;;
80231;SDS011;70197;42.124;24.752;2023-08-08T02:00:43;1.60;;;1.50;;
80231;SDS011;70197;42.124;24.752;2023-08-08T02:03:10;3.58;;;1.65;;
80231;SDS011;70197;42.124;24.752;2023-08-08T02:05:36;1.95;;;1.73;;
80231;SDS011;70197;42.124;24.752;2023-08-08T02:08:02;2.35;;;1.73;;
80231;SDS011;70197;42.124;24.752;2023-08-08T02:10:28;2.10;;;1.90;;
80231;SDS011;70197;42.124;24.752;2023-08-08T02:12:54;2.80;;;1.70;;
80231;SDS011;70197;42.124;24.752;2023-08-08T02:15:19;3.67;;;1.90;;
80231;SDS011;70197;42.124;24.752;2023-08-08T02:17:45;2.05;;;1.65;;
80231;SDS011;70197;42.124;24.752;2023-08-08T02:20:11;5.07;;;1.75;;
80231;SDS011;70197;42.124;24.752;2023-08-08T02:22:37;1.90;;;1.75;;
80231;SDS011;70197;42.124;24.752;2023-08-08T02:25:03;1.95;;;1.70;;
80231;SDS011;70197;42.124;24.752;2023-08-08T02:27:29;3.35;;;2.00;;
80231;SDS011;70197;42.124;24.752;2023-08-08T02:29:54;2.20;;;1.80;;
80231;SDS011;70197;42.124;24.752;2023-08-08T02:32:22;1.77;;;1.67;;
80231;SDS011;70197;42.124;24.752;2023-08-08T02:34:48;1.92;;;1.73;;
80231;SDS011;70197;42.124;24.752;2023-08-08T02:37:14;1.73;;;1.63;;
80231;SDS011;70197;42.124;24.752;2023-08-08T02:39:41;6.05;;;2.13;;
80231;SDS011;70197;42.124;24.752;2023-08-08T02:42:08;2.13;;;1.90;;
80231;SDS011;70197;42.124;24.752;2023-08-08T02:44:34;1.77;;;1.67;;
80231;SDS011;70197;42.124;24.752;2023-08-08T02:47:00;1.80;;;1.70;;
80231;SDS011;70197;42.124;24.752;2023-08-08T02:49:25;2.22;;;2.03;;
80231;SDS011;70197;42.124;24.752;2023-08-08T02:51:51;2.30;;;1.90;;
80231;SDS011;70197;42.124;24.752;2023-08-08T02:54:17;2.97;;;2.00;;
80231;SDS011;70197;42.124;24.752;2023-08-08T02:56:42;1.85;;;1.63;;
80231;SDS011;70197;42.124;24.752;2023-08-08T02:59:08;2.33;;;2.13;;
80231;SDS011;70197;42.124;24.752;2023-08-08T03:01:33;1.67;;;1.58;;
80231;SDS011;70197;42.124;24.752;2023-08-08T03:04:04;2.72;;;1.83;;
80231;SDS011;70197;42.124;24.752;2023-08-08T03:06:30;3.00;;;2.03;;
80231;SDS011;70197;42.124;24.752;2023-08-08T03:08:56;2.60;;;2.10;;
80231;SDS011;70197;42.124;24.752;2023-08-08T03:11:21;3.63;;;1.90;;
80231;SDS011;70197;42.124;24.752;2023-08-08T03:13:47;2.55;;;2.20;;
80231;SDS011;70197;42.124;24.752;2023-08-08T03:16:12;6.00;;;2.08;;
80231;SDS011;70197;42.124;24.752;2023-08-08T03:18:38;2.33;;;2.10;;
80231;SDS011;70197;42.124;24.752;2023-08-08T03:21:04;2.92;;;2.30;;
80231;SDS011;70197;42.124;24.752;2023-08-08T03:23:29;2.30;;;2.08;;
80231;SDS011;70197;42.124;24.752;2023-08-08T03:25:55;2.60;;;2.40;;
80231;SDS011;70197;42.124;24.752;2023-08-08T03:28:21;5.15;;;2.33;;
80231;SDS011;70197;42.124;24.752;2023-08-08T03:30:46;1.98;;;1.88;;
80231;SDS011;70197;42.124;24.752;2023-08-08T03:33:12;3.00;;;1.88;;
80231;SDS011;70197;42.124;24.752;2023-08-08T03:35:37;3.60;;;2.15;;
80231;SDS011;70197;42.124;24.752;2023-08-08T03:38:03;2.45;;;2.25;;
80231;SDS011;70197;42.124;24.752;2023-08-08T03:40:29;3.47;;;2.25;;
80231;SDS011;70197;42.124;24.752;2023-08-08T03:42:55;2.72;;;2.20;;
80231;SDS011;70197;42.124;24.752;2023-08-08T03:45:21;4.47;;;2.38;;
80231;SDS011;70197;42.124;24.752;2023-08-08T03:47:47;2.88;;;2.47;;
80231;SDS011;70197;42.124;24.752;2023-08-08T03:50:12;4.13;;;2.30;;
80231;SDS011;70197;42.124;24.752;2023-08-08T03:52:38;2.70;;;2.20;;
80231;SDS011;70197;42.124;24.752;2023-08-08T03:55:04;4.20;;;2.28;;
80231;SDS011;70197;42.124;24.752;2023-08-08T03:57:30;2.50;;;2.30;;
80231;SDS011;70197;42.124;24.752;2023-08-08T03:59:56;4.45;;;2.15;;
80231;SDS011;70197;42.124;24.752;2023-08-08T04:02:21;2.50;;;2.30;;
80231;SDS011;70197;42.124;24.752;2023-08-08T04:04:47;5.00;;;2.40;;
80231;SDS011;70197;42.124;24.752;2023-08-08T04:07:13;2.45;;;2.20;;
80231;SDS011;70197;42.124;24.752;2023-08-08T04:09:39;2.58;;;2.30;;
80231;SDS011;70197;42.124;24.752;2023-08-08T04:12:04;2.65;;;2.38;;
80231;SDS011;70197;42.124;24.752;2023-08-08T04:14:30;2.50;;;2.30;;
80231;SDS011;70197;42.124;24.752;2023-08-08T04:16:56;4.60;;;2.65;;
80231;SDS011;70197;42.124;24.752;2023-08-08T04:19:21;2.55;;;2.35;;
80231;SDS011;70197;42.124;24.752;2023-08-08T04:21:48;8.38;;;3.05;;
80231;SDS011;70197;42.124;24.752;2023-08-08T04:24:14;4.57;;;2.70;;
80231;SDS011;70197;42.124;24.752;2023-08-08T04:26:40;2.85;;;2.50;;
80231;SDS011;70197;42.124;24.752;2023-08-08T04:29:05;5.00;;;2.88;;
80231;SDS011;70197;42.124;24.752;2023-08-08T04:31:31;6.13;;;2.72;;
80231;SDS011;70197;42.124;24.752;2023-08-08T04:33:57;5.97;;;2.50;;
80231;SDS011;70197;42.124;24.752;2023-08-08T04:36:28;4.25;;;3.22;;
80231;SDS011;70197;42.124;24.752;2023-08-08T04:38:54;3.33;;;2.60;;
80231;SDS011;70197;42.124;24.752;2023-08-08T04:41:20;5.05;;;2.47;;
80231;SDS011;70197;42.124;24.752;2023-08-08T04:43:46;13.25;;;2.80;;
80231;SDS011;70197;42.124;24.752;2023-08-08T04:46:11;3.50;;;2.53;;
80231;SDS011;70197;42.124;24.752;2023-08-08T04:48:37;3.88;;;2.83;;
80231;SDS011;70197;42.124;24.752;2023-08-08T04:51:06;5.07;;;2.60;;
80231;SDS011;70197;42.124;24.752;2023-08-08T04:53:33;6.10;;;2.80;;
80231;SDS011;70197;42.124;24.752;2023-08-08T04:55:59;6.00;;;2.88;;
80231;SDS011;70197;42.124;24.752;2023-08-08T04:58:24;4.47;;;3.25;;
80231;SDS011;70197;42.124;24.752;2023-08-08T05:00:50;4.60;;;2.70;;
80231;SDS011;70197;42.124;24.752;2023-08-08T05:03:16;4.25;;;2.97;;
80231;SDS011;70197;42.124;24.752;2023-08-08T05:05:42;4.65;;;3.00;;
80231;SDS011;70197;42.124;24.752;2023-08-08T05:08:10;6.57;;;2.70;;
80231;SDS011;70197;42.124;24.752;2023-08-08T05:10:36;3.80;;;2.70;;
80231;SDS011;70197;42.124;24.752;2023-08-08T05:13:02;6.40;;;2.75;;
80231;SDS011;70197;42.124;24.752;2023-08-08T05:15:27;2.67;;;2.40;;
80231;SDS011;70197;42.124;24.752;2023-08-08T05:17:57;9.57;;;2.60;;
80231;SDS011;70197;42.124;24.752;2023-08-08T05:20:24;9.15;;;2.47;;
80231;SDS011;70197;42.124;24.752;2023-08-08T05:22:50;2.45;;;2.25;;
80231;SDS011;70197;42.124;24.752;2023-08-08T05:25:16;2.15;;;1.98;;
80231;SDS011;70197;42.124;24.752;2023-08-08T05:27:41;7.97;;;3.15;;
80231;SDS011;70197;42.124;24.752;2023-08-08T05:30:07;4.47;;;2.22;;
80231;SDS011;70197;42.124;24.752;2023-08-08T05:32:33;8.63;;;2.95;;
80231;SDS011;70197;42.124;24.752;2023-08-08T05:34:59;21.75;;;3.88;;
80231;SDS011;70197;42.124;24.752;2023-08-08T05:37:25;14.30;;;3.38;;
80231;SDS011;70197;42.124;24.752;2023-08-08T05:39:51;11.55;;;3.08;;
80231;SDS011;70197;42.124;24.752;2023-08-08T05:42:17;7.25;;;2.35;;
80231;SDS011;70197;42.124;24.752;2023-08-08T05:44:43;8.15;;;2.28;;
80231;SDS011;70197;42.124;24.752;2023-08-08T05:47:09;13.10;;;2.80;;
80231;SDS011;70197;42.124;24.752;2023-08-08T05:49:35;7.43;;;2.83;;
80231;SDS011;70197;42.124;24.752;2023-08-08T05:52:00;7.05;;;2.47;;
80231;SDS011;70197;42.124;24.752;2023-08-08T05:54:26;8.55;;;2.55;;
80231;SDS011;70197;42.124;24.752;2023-08-08T05:56:53;8.52;;;2.72;;
80231;SDS011;70197;42.124;24.752;2023-08-08T05:59:19;8.35;;;3.25;;
80231;SDS011;70197;42.124;24.752;2023-08-08T06:01:44;44.38;;;3.53;;
80231;SDS011;70197;42.124;24.752;2023-08-08T06:04:11;35.63;;;3.88;;
80231;SDS011;70197;42.124;24.752;2023-08-08T06:06:37;17.58;;;3.38;;
80231;SDS011;70197;42.124;24.752;2023-08-08T06:09:03;8.45;;;2.80;;
80231;SDS011;70197;42.124;24.752;2023-08-08T06:11:28;9.10;;;2.63;;
80231;SDS011;70197;42.124;24.752;2023-08-08T06:13:54;9.95;;;2.80;;
80231;SDS011;70197;42.124;24.752;2023-08-08T06:16:20;4.38;;;2.70;;
80231;SDS011;70197;42.124;24.752;2023-08-08T06:18:46;5.93;;;2.50;;
80231;SDS011;70197;42.124;24.752;2023-08-08T06:21:12;10.48;;;2.67;;
80231;SDS011;70197;42.124;24.752;2023-08-08T06:23:37;3.13;;;2.70;;
80231;SDS011;70197;42.124;24.752;2023-08-08T06:26:03;4.43;;;2.22;;
80231;SDS011;70197;42.124;24.752;2023-08-08T06:28:29;7.22;;;2.55;;
80231;SDS011;70197;42.124;24.752;2023-08-08T06:30:55;6.72;;;2.22;;
80231;SDS011;70197;42.124;24.752;2023-08-08T06:33:22;3.92;;;2.30;;
80231;SDS011;70197;42.124;24.752;2023-08-08T06:35:49;8.05;;;2.10;;
80231;SDS011;70197;42.124;24.752;2023-08-08T06:38:15;2.67;;;1.83;;
80231;SDS011;70197;42.124;24.752;2023-08-08T06:40:41;2.53;;;2.00;;
80231;SDS011;70197;42.124;24.752;2023-08-08T06:43:06;9.63;;;2.03;;
80231;SDS011;70197;42.124;24.752;2023-08-08T06:45:32;4.43;;;1.88;;
80231;SDS011;70197;42.124;24.752;2023-08-08T06:47:58;22.15;;;2.03;;
80231;SDS011;70197;42.124;24.752;2023-08-08T06:50:23;9.13;;;2.50;;
80231;SDS011;70197;42.124;24.752;2023-08-08T06:52:49;26.08;;;2.63;;
80231;SDS011;70197;42.124;24.752;2023-08-08T06:55:15;9.70;;;2.00;;
80231;SDS011;70197;42.124;24.752;2023-08-08T06:57:41;22.38;;;2.80;;
80231;SDS011;70197;42.124;24.752;2023-08-08T07:00:07;6.00;;;2.10;;
80231;SDS011;70197;42.124;24.752;2023-08-08T07:02:36;6.13;;;1.98;;
80231;SDS011;70197;42.124;24.752;2023-08-08T07:05:02;13.85;;;2.67;;
80231;SDS011;70197;42.124;24.752;2023-08-08T07:07:29;67.93;;;5.00;;
80231;SDS011;70197;42.124;24.752;2023-08-08T07:09:55;60.13;;;4.55;;
80231;SDS011;70197;42.124;24.752;2023-08-08T07:12:21;68.72;;;5.05;;
80231;SDS011;70197;42.124;24.752;2023-08-08T07:14:47;49.78;;;5.53;;
80231;SDS011;70197;42.124;24.752;2023-08-08T07:17:12;48.97;;;4.68;;
80231;SDS011;70197;42.124;24.752;2023-08-08T07:19:38;69.70;;;6.50;;
80231;SDS011;70197;42.124;24.752;2023-08-08T07:22:04;25.05;;;3.00;;
80231;SDS011;70197;42.124;24.752;2023-08-08T07:24:29;51.00;;;5.20;;
80231;SDS011;70197;42.124;24.752;2023-08-08T07:26:55;89.55;;;7.22;;
80231;SDS011;70197;42.124;24.752;2023-08-08T07:29:24;38.08;;;3.17;;
80231;SDS011;70197;42.124;24.752;2023-08-08T07:31:51;15.55;;;2.35;;
80231;SDS011;70197;42.124;24.752;2023-08-08T07:34:18;9.80;;;1.92;;
80231;SDS011;70197;42.124;24.752;2023-08-08T07:36:43;18.30;;;1.92;;
80231;SDS011;70197;42.124;24.752;2023-08-08T07:39:09;12.00;;;1.70;;
80231;SDS011;70197;42.124;24.752;2023-08-08T07:41:35;4.18;;;1.45;;
80231;SDS011;70197;42.124;24.752;2023-08-08T07:44:03;19.55;;;2.08;;
80231;SDS011;70197;42.124;24.752;2023-08-08T07:46:29;5.22;;;1.40;;
80231;SDS011;70197;42.124;24.752;2023-08-08T07:48:55;25.58;;;2.38;;
80231;SDS011;70197;42.124;24.752;2023-08-08T07:51:24;9.88;;;1.60;;
80231;SDS011;70197;42.124;24.752;2023-08-08T07:53:50;4.70;;;1.60;;
80231;SDS011;70197;42.124;24.752;2023-08-08T07:56:15;5.10;;;1.70;;
80231;SDS011;70197;42.124;24.752;2023-08-08T07:58:41;5.53;;;1.40;;
80231;SDS011;70197;42.124;24.752;2023-08-08T08:01:07;81.30;;;5.22;;
80231;SDS011;70197;42.124;24.752;2023-08-08T08:03:32;98.30;;;6.30;;
80231;SDS011;70197;42.124;24.752;2023-08-08T08:05:58;16.83;;;1.98;;
80231;SDS011;70197;42.124;24.752;2023-08-08T08:08:24;11.18;;;1.60;;
80231;SDS011;70197;42.124;24.752;2023-08-08T08:10:49;9.23;;;2.03;;
80231;SDS011;70197;42.124;24.752;2023-08-08T08:13:16;5.43;;;1.90;;
80231;SDS011;70197;42.124;24.752;2023-08-08T08:15:42;23.50;;;2.80;;
80231;SDS011;70197;42.124;24.752;2023-08-08T08:18:08;109.75;;;7.97;;
80231;SDS011;70197;42.124;24.752;2023-08-08T08:20:36;69.28;;;5.13;;
80231;SDS011;70197;42.124;24.752;2023-08-08T08:23:02;85.53;;;8.02;;
80231;SDS011;70197;42.124;24.752;2023-08-08T08:25:27;65.50;;;5.60;;
80231;SDS011;70197;42.124;24.752;2023-08-08T08:27:53;15.05;;;1.70;;
80231;SDS011;70197;42.124;24.752;2023-08-08T08:30:19;5.93;;;1.58;;
80231;SDS011;70197;42.124;24.752;2023-08-08T08:32:44;32.65;;;2.40;;
80231;SDS011;70197;42.124;24.752;2023-08-08T08:35:10;14.00;;;1.85;;
80231;SDS011;70197;42.124;24.752;2023-08-08T08:37:38;6.22;;;1.30;;
80231;SDS011;70197;42.124;24.752;2023-08-08T08:40:03;20.65;;;1.98;;
80231;SDS011;70197;42.124;24.752;2023-08-08T08:42:30;12.40;;;1.70;;
80231;SDS011;70197;42.124;24.752;2023-08-08T08:44:58;7.57;;;1.50;;
80231;SDS011;70197;42.124;24.752;2023-08-08T08:47:24;2.33;;;1.30;;
80231;SDS011;70197;42.124;24.752;2023-08-08T08:49:51;7.95;;;1.20;;
80231;SDS011;70197;42.124;24.752;2023-08-08T08:52:18;56.03;;;3.13;;
80231;SDS011;70197;42.124;24.752;2023-08-08T08:54:44;28.48;;;2.40;;
80231;SDS011;70197;42.124;24.752;2023-08-08T08:57:09;12.40;;;1.80;;
80231;SDS011;70197;42.124;24.752;2023-08-08T08:59:35;13.85;;;1.90;;
80231;SDS011;70197;42.124;24.752;2023-08-08T09:02:01;10.27;;;1.67;;
80231;SDS011;70197;42.124;24.752;2023-08-08T09:04:27;8.27;;;1.35;;
80231;SDS011;70197;42.124;24.752;2023-08-08T09:06:54;9.75;;;1.50;;
80231;SDS011;70197;42.124;24.752;2023-08-08T09:09:20;18.67;;;1.90;;
80231;SDS011;70197;42.124;24.752;2023-08-08T09:11:48;11.60;;;1.73;;
80231;SDS011;70197;42.124;24.752;2023-08-08T09:14:22;15.98;;;1.90;;
80231;SDS011;70197;42.124;24.752;2023-08-08T09:16:50;8.90;;;1.90;;
80231;SDS011;70197;42.124;24.752;2023-08-08T09:19:20;12.43;;;1.48;;
80231;SDS011;70197;42.124;24.752;2023-08-08T09:21:46;4.47;;;1.27;;
80231;SDS011;70197;42.124;24.752;2023-08-08T09:24:13;17.33;;;1.95;;
80231;SDS011;70197;42.124;24.752;2023-08-08T09:26:39;7.90;;;1.45;;
80231;SDS011;70197;42.124;24.752;2023-08-08T09:29:05;7.55;;;1.20;;
80231;SDS011;70197;42.124;24.752;2023-08-08T09:31:31;6.28;;;1.40;;
80231;SDS011;70197;42.124;24.752;2023-08-08T09:34:00;4.13;;;1.10;;
80231;SDS011;70197;42.124;24.752;2023-08-08T09:36:27;12.73;;;1.70;;
80231;SDS011;70197;42.124;24.752;2023-08-08T09:38:53;22.33;;;2.22;;
80231;SDS011;70197;42.124;24.752;2023-08-08T09:41:20;9.57;;;1.50;;
80231;SDS011;70197;42.124;24.752;2023-08-08T09:43:50;61.83;;;4.55;;
80231;SDS011;70197;42.124;24.752;2023-08-08T09:46:20;9.15;;;1.67;;
80231;SDS011;70197;42.124;24.752;2023-08-08T09:48:46;2.65;;;1.23;;
80231;SDS011;70197;42.124;24.752;2023-08-08T09:51:13;5.00;;;1.35;;
80231;SDS011;70197;42.124;24.752;2023-08-08T09:53:39;7.90;;;1.58;;
80231;SDS011;70197;42.124;24.752;2023-08-08T09:56:07;3.50;;;1.48;;
80231;SDS011;70197;42.124;24.752;2023-08-08T09:58:33;7.93;;;1.42;;
80231;SDS011;70197;42.124;24.752;2023-08-08T10:00:59;16.08;;;1.55;;
80231;SDS011;70197;42.124;24.752;2023-08-08T10:03:25;6.82;;;1.42;;
80231;SDS011;70197;42.124;24.752;2023-08-08T10:05:52;10.27;;;1.58;;
80231;SDS011;70197;42.124;24.752;2023-08-08T10:08:18;6.68;;;2.08;;
80231;SDS011;70197;42.124;24.752;2023-08-08T10:10:45;4.40;;;1.30;;
80231;SDS011;70197;42.124;24.752;2023-08-08T10:13:25;9.68;;;1.67;;
80231;SDS011;70197;42.124;24.752;2023-08-08T10:15:51;6.97;;;1.33;;
80231;SDS011;70197;42.124;24.752;2023-08-08T10:18:18;2.90;;;1.33;;
80231;SDS011;70197;42.124;24.752;2023-08-08T10:20:46;7.40;;;1.73;;
80231;SDS011;70197;42.124;24.752;2023-08-08T10:23:16;6.05;;;1.58;;
80231;SDS011;70197;42.124;24.752;2023-08-08T10:25:44;14.77;;;1.92;;
80231;SDS011;70197;42.124;24.752;2023-08-08T10:28:11;3.50;;;1.40;;
80231;SDS011;70197;42.124;24.752;2023-08-08T10:30:46;4.28;;;1.58;;
80231;SDS011;70197;42.124;24.752;2023-08-08T10:33:17;1.67;;;1.38;;
80231;SDS011;70197;42.124;24.752;2023-08-08T10:35:57;5.13;;;1.60;;
80231;SDS011;70197;42.124;24.752;2023-08-08T10:38:45;19.30;;;1.92;;
80231;SDS011;70197;42.124;24.752;2023-08-08T10:41:20;5.88;;;1.67;;
80231;SDS011;70197;42.124;24.752;2023-08-08T10:43:50;3.42;;;1.83;;
80231;SDS011;70197;42.124;24.752;2023-08-08T10:46:26;8.98;;;1.60;;
80231;SDS011;70197;42.124;24.752;2023-08-08T10:48:58;5.35;;;1.35;;
80231;SDS011;70197;42.124;24.752;2023-08-08T10:51:37;4.72;;;1.60;;
80231;SDS011;70197;42.124;24.752;2023-08-08T10:54:12;3.78;;;1.50;;
80231;SDS011;70197;42.124;24.752;2023-08-08T10:56:40;5.13;;;1.58;;
80231;SDS011;70197;42.124;24.752;2023-08-08T10:59:15;4.10;;;1.40;;
80231;SDS011;70197;42.124;24.752;2023-08-08T11:01:46;6.95;;;1.60;;
80231;SDS011;70197;42.124;24.752;2023-08-08T11:04:14;4.50;;;1.40;;
80231;SDS011;70197;42.124;24.752;2023-08-08T11:06:41;7.88;;;1.60;;
80231;SDS011;70197;42.124;24.752;2023-08-08T11:09:07;2.17;;;1.38;;
80231;SDS011;70197;42.124;24.752;2023-08-08T11:11:42;6.63;;;1.48;;
80231;SDS011;70197;42.124;24.752;2023-08-08T11:14:09;5.03;;;1.60;;
80231;SDS011;70197;42.124;24.752;2023-08-08T11:16:36;6.05;;;1.58;;
80231;SDS011;70197;42.124;24.752;2023-08-08T11:19:02;8.40;;;1.50;;
80231;SDS011;70197;42.124;24.752;2023-08-08T11:21:28;8.07;;;1.80;;
80231;SDS011;70197;42.124;24.752;2023-08-08T11:23:54;2.72;;;1.52;;
80231;SDS011;70197;42.124;24.752;2023-08-08T11:26:20;2.28;;;1.15;;
80231;SDS011;70197;42.124;24.752;2023-08-08T11:28:49;4.10;;;1.50;;
80231;SDS011;70197;42.124;24.752;2023-08-08T11:31:16;1.80;;;1.15;;
80231;SDS011;70197;42.124;24.752;2023-08-08T11:33:46;6.47;;;1.42;;
80231;SDS011;70197;42.124;24.752;2023-08-08T11:36:13;9.52;;;1.60;;
80231;SDS011;70197;42.124;24.752;2023-08-08T11:38:40;4.57;;;1.40;;
80231;SDS011;70197;42.124;24.752;2023-08-08T11:41:08;16.25;;;1.92;;
80231;SDS011;70197;42.124;24.752;2023-08-08T11:43:41;2.67;;;1.67;;
80231;SDS011;70197;42.124;24.752;2023-08-08T11:46:08;6.95;;;1.90;;
80231;SDS011;70197;42.124;24.752;2023-08-08T11:48:37;5.97;;;1.63;;
80231;SDS011;70197;42.124;24.752;2023-08-08T11:51:04;5.22;;;1.77;;
80231;SDS011;70197;42.124;24.752;2023-08-08T11:53:30;6.28;;;2.13;;
80231;SDS011;70197;42.124;24.752;2023-08-08T11:55:56;3.03;;;1.42;;
80231;SDS011;70197;42.124;24.752;2023-08-08T11:58:24;4.43;;;1.70;;
80231;SDS011;70197;42.124;24.752;2023-08-08T12:00:50;6.18;;;1.70;;
80231;SDS011;70197;42.124;24.752;2023-08-08T12:03:17;3.58;;;1.50;;
80231;SDS011;70197;42.124;24.752;2023-08-08T12:05:45;3.78;;;1.60;;
80231;SDS011;70197;42.124;24.752;2023-08-08T12:08:12;3.85;;;1.30;;
80231;SDS011;70197;42.124;24.752;2023-08-08T12:10:38;3.65;;;1.58;;
80231;SDS011;70197;42.124;24.752;2023-08-08T12:13:04;2.25;;;1.60;;
80231;SDS011;70197;42.124;24.752;2023-08-08T12:18:01;4.53;;;1.77;;
80231;SDS011;70197;42.124;24.752;2023-08-08T12:20:27;1.92;;;1.50;;
80231;SDS011;70197;42.124;24.752;2023-08-08T12:22:57;3.45;;;1.63;;
80231;SDS011;70197;42.124;24.752;2023-08-08T12:25:23;2.25;;;1.42;;
80231;SDS011;70197;42.124;24.752;2023-08-08T12:27:49;2.33;;;1.75;;
80231;SDS011;70197;42.124;24.752;2023-08-08T12:30:14;4.45;;;1.63;;
80231;SDS011;70197;42.124;24.752;2023-08-08T12:32:40;1.80;;;1.60;;
80231;SDS011;70197;42.124;24.752;2023-08-08T12:35:06;3.17;;;1.52;;
80231;SDS011;70197;42.124;24.752;2023-08-08T12:37:32;1.75;;;1.65;;
80231;SDS011;70197;42.124;24.752;2023-08-08T12:39:59;1.83;;;1.65;;
80231;SDS011;70197;42.124;24.752;2023-08-08T12:42:27;2.25;;;1.70;;
80231;SDS011;70197;42.124;24.752;2023-08-08T12:44:53;3.13;;;1.67;;
80231;SDS011;70197;42.124;24.752;2023-08-08T12:47:19;6.15;;;1.92;;
80231;SDS011;70197;42.124;24.752;2023-08-08T12:49:45;5.55;;;1.92;;
80231;SDS011;70197;42.124;24.752;2023-08-08T12:52:11;5.95;;;1.85;;
80231;SDS011;70197;42.124;24.752;2023-08-08T12:54:37;5.40;;;1.65;;
80231;SDS011;70197;42.124;24.752;2023-08-08T12:57:03;3.88;;;1.85;;
80231;SDS011;70197;42.124;24.752;2023-08-08T12:59:29;2.05;;;1.45;;
80231;SDS011;70197;42.124;24.752;2023-08-08T13:01:55;2.97;;;1.80;;
80231;SDS011;70197;42.124;24.752;2023-08-08T13:04:20;1.73;;;1.55;;
80231;SDS011;70197;42.124;24.752;2023-08-08T13:06:49;6.70;;;1.48;;
80231;SDS011;70197;42.124;24.752;2023-08-08T13:09:15;2.72;;;1.50;;
80231;SDS011;70197;42.124;24.752;2023-08-08T13:11:41;3.33;;;2.00;;
80231;SDS011;70197;42.124;24.752;2023-08-08T13:14:06;3.83;;;1.75;;
80231;SDS011;70197;42.124;24.752;2023-08-08T13:16:32;2.55;;;1.60;;
80231;SDS011;70197;42.124;24.752;2023-08-08T13:18:58;1.63;;;1.48;;
80231;SDS011;70197;42.124;24.752;2023-08-08T13:21:24;2.33;;;1.30;;
80231;SDS011;70197;42.124;24.752;2023-08-08T13:23:50;9.60;;;1.92;;
80231;SDS011;70197;42.124;24.752;2023-08-08T13:26:15;5.00;;;1.77;;
80231;SDS011;70197;42.124;24.752;2023-08-08T13:28:41;8.38;;;1.88;;
80231;SDS011;70197;42.124;24.752;2023-08-08T13:31:08;4.47;;;1.88;;
80231;SDS011;70197;42.124;24.752;2023-08-08T13:33:33;1.95;;;1.58;;
80231;SDS011;70197;42.124;24.752;2023-08-08T13:35:59;6.95;;;2.03;;
80231;SDS011;70197;42.124;24.752;2023-08-08T13:38:26;4.95;;;2.00;;
80231;SDS011;70197;42.124;24.752;2023-08-08T13:40:52;2.08;;;1.70;;
80231;SDS011;70197;42.124;24.752;2023-08-08T13:43:18;4.07;;;1.60;;
80231;SDS011;70197;42.124;24.752;2023-08-08T13:45:45;2.42;;;1.60;;
80231;SDS011;70197;42.124;24.752;2023-08-08T13:48:10;4.07;;;1.92;;
80231;SDS011;70197;42.124;24.752;2023-08-08T13:50:36;1.60;;;1.48;;
80231;SDS011;70197;42.124;24.752;2023-08-08T13:53:02;1.60;;;1.45;;
80231;SDS011;70197;42.124;24.752;2023-08-08T13:55:28;1.90;;;1.30;;
80231;SDS011;70197;42.124;24.752;2023-08-08T13:57:54;5.50;;;2.10;;
80231;SDS011;70197;42.124;24.752;2023-08-08T14:00:20;2.53;;;1.50;;
80231;SDS011;70197;42.124;24.752;2023-08-08T14:02:46;1.70;;;1.60;;
80231;SDS011;70197;42.124;24.752;2023-08-08T14:05:12;4.80;;;2.10;;
80231;SDS011;70197;42.124;24.752;2023-08-08T14:07:38;3.30;;;1.65;;
80231;SDS011;70197;42.124;24.752;2023-08-08T14:10:04;7.28;;;2.30;;
80231;SDS011;70197;42.124;24.752;2023-08-08T14:12:31;4.50;;;1.73;;
80231;SDS011;70197;42.124;24.752;2023-08-08T14:14:56;5.22;;;1.80;;
80231;SDS011;70197;42.124;24.752;2023-08-08T14:17:22;5.57;;;1.70;;
80231;SDS011;70197;42.124;24.752;2023-08-08T14:19:47;6.70;;;2.08;;
80231;SDS011;70197;42.124;24.752;2023-08-08T14:22:13;1.90;;;1.70;;
80231;SDS011;70197;42.124;24.752;2023-08-08T14:24:40;2.20;;;1.50;;
80231;SDS011;70197;42.124;24.752;2023-08-08T14:27:09;2.17;;;1.88;;
80231;SDS011;70197;42.124;24.752;2023-08-08T14:29:35;6.07;;;2.05;;
80231;SDS011;70197;42.124;24.752;2023-08-08T14:32:00;5.53;;;1.77;;